Time;durP1;ratioP1;P1;durP2;ratioP2;P2;SDS_P1;SDS_P2;PMS_P1;PMS_P2;Temp;Humidity;BMP_temperature;BMP_pressure;BME280_temperature;BME280_humidity;BME280_pressure;Samples;Min_cycle;Max_cycle;Signal;HPM_P1;HPM_P2
2022/05/09 00:00:13;;;;;;;16.47;9.90;;;11.50;99.90;;;;;;4957503;28;20568;-83
2022/05/09 00:02:39;;;;;;;9.63;8.15;;;11.50;99.90;;;;;;4954705;28;20200;-83
2022/05/09 00:05:06;;;;;;;9.20;7.80;;;11.40;99.90;;;;;;4956724;28;20236;-83
2022/05/09 00:07:31;;;;;;;16.85;10.00;;;11.40;99.90;;;;;;4956531;28;20236;-82
2022/05/09 00:09:57;;;;;;;9.30;7.70;;;11.40;99.90;;;;;;4965127;28;20189;-82
2022/05/09 00:12:23;;;;;;;11.90;8.83;;;11.40;99.90;;;;;;4962631;28;20223;-82
2022/05/09 00:14:48;;;;;;;13.00;8.90;;;11.30;99.90;;;;;;4957719;28;20211;-84
2022/05/09 00:17:14;;;;;;;10.90;7.97;;;11.30;99.90;;;;;;4955081;28;20273;-84
2022/05/09 00:19:40;;;;;;;10.93;8.73;;;11.30;99.90;;;;;;4956650;28;20478;-83
2022/05/09 00:22:05;;;;;;;11.27;8.10;;;11.20;99.90;;;;;;4958735;28;20195;-84
2022/05/09 00:24:31;;;;;;;13.53;9.07;;;11.10;99.90;;;;;;4956867;28;20216;-83
2022/05/09 00:26:57;;;;;;;16.88;10.65;;;11.10;99.90;;;;;;4957753;28;20189;-83
2022/05/09 00:29:23;;;;;;;13.50;9.50;;;11.20;99.90;;;;;;4965940;28;20172;-84
2022/05/09 00:31:52;;;;;;;12.75;9.82;;;11.10;99.90;;;;;;4955701;28;20200;-82
2022/05/09 00:34:21;;;;;;;11.07;8.80;;;11.10;99.90;;;;;;4945622;28;20268;-83
2022/05/09 00:36:48;;;;;;;12.63;8.95;;;11.10;99.90;;;;;;4956503;28;20185;-83
2022/05/09 00:39:15;;;;;;;13.35;9.82;;;11.00;99.90;;;;;;4960292;28;20192;-83
2022/05/09 00:41:42;;;;;;;14.50;11.30;;;10.90;99.90;;;;;;4958682;28;20188;-83
2022/05/09 00:44:20;;;;;;;13.05;10.48;;;10.80;99.90;;;;;;4954281;28;20224;-82
2022/05/09 00:46:50;;;;;;;14.35;10.18;;;10.80;99.90;;;;;;4955549;28;20268;-83
2022/05/09 00:49:18;;;;;;;12.65;10.52;;;10.80;99.90;;;;;;4952274;28;20180;-83
2022/05/09 00:51:52;;;;;;;14.00;10.05;;;10.90;99.90;;;;;;4961093;28;20181;-82
2022/05/09 00:54:19;;;;;;;19.63;10.55;;;10.80;99.90;;;;;;4957626;28;20209;-85
2022/05/09 00:56:51;;;;;;;13.55;10.07;;;10.70;99.90;;;;;;4953150;28;20189;-85
2022/05/09 00:59:19;;;;;;;14.00;9.77;;;10.70;99.90;;;;;;4952255;28;20196;-85
2022/05/09 01:01:47;;;;;;;12.90;9.40;;;10.70;99.90;;;;;;4952671;28;20267;-85
2022/05/09 01:04:16;;;;;;;16.92;11.35;;;10.60;99.90;;;;;;4948717;28;20267;-84
2022/05/09 01:06:42;;;;;;;11.50;9.55;;;10.60;99.90;;;;;;4959277;28;20276;-85
2022/05/09 01:09:10;;;;;;;18.27;11.13;;;10.60;99.90;;;;;;4958861;28;20219;-84
2022/05/09 01:11:37;;;;;;;14.20;12.52;;;10.60;99.90;;;;;;4958734;28;20215;-82
2022/05/09 01:14:17;;;;;;;14.52;11.30;;;10.70;99.90;;;;;;4952019;28;20189;-82
2022/05/09 01:16:43;;;;;;;11.43;9.30;;;;;;;;;;4953340;28;20252;-82
2022/05/09 01:19:35;;;;;;;12.50;10.77;;;10.70;99.90;;;;;;4950042;28;20221;-83
2022/05/09 01:22:02;;;;;;;18.05;12.18;;;10.60;99.90;;;;;;4960816;28;20188;-82
2022/05/09 01:24:29;;;;;;;14.73;10.02;;;10.50;99.90;;;;;;4958271;28;20212;-83
2022/05/09 01:26:56;;;;;;;15.65;12.00;;;10.50;99.90;;;;;;4954758;28;20179;-83
2022/05/09 01:29:24;;;;;;;16.13;11.50;;;10.50;99.90;;;;;;4952663;28;20201;-83
2022/05/09 01:31:52;;;;;;;15.35;11.57;;;10.40;99.90;;;;;;4954752;28;20184;-83
2022/05/09 01:34:18;;;;;;;15.98;11.23;;;10.40;99.90;;;;;;4949815;28;20567;-83
2022/05/09 01:36:49;;;;;;;19.50;12.90;;;10.50;99.90;;;;;;4961364;28;20248;-83
2022/05/09 01:39:14;;;;;;;15.00;11.73;;;10.40;99.90;;;;;;4959144;28;20441;-83
2022/05/09 01:41:43;;;;;;;15.10;11.73;;;10.30;99.90;;;;;;4959536;28;20216;-83
2022/05/09 01:44:10;;;;;;;15.27;12.13;;;10.30;99.90;;;;;;4957323;28;20208;-83
2022/05/09 01:49:29;;;;;;;15.63;11.80;;;10.30;99.90;;;;;;4955248;28;20211;-82
2022/05/09 01:49:30;;;;;;;18.42;12.77;;;10.30;99.90;;;;;;4953617;28;20208;-83
2022/05/09 01:51:57;;;;;;;17.65;13.52;;;10.30;99.90;;;;;;4960727;28;20188;-82
2022/05/09 01:54:23;;;;;;;17.23;12.88;;;10.30;99.90;;;;;;4961338;28;20200;-83
2022/05/09 01:56:49;;;;;;;18.73;13.27;;;;;;;;;;4954365;28;20210;-85
2022/05/09 01:59:15;;;;;;;23.13;12.37;;;;;;;;;;4955059;28;20184;-82
2022/05/09 02:01:44;;;;;;;18.63;13.77;;;10.20;99.90;;;;;;4957336;28;20564;-83
2022/05/09 02:04:11;;;;;;;20.98;13.05;;;10.20;99.90;;;;;;4955190;28;20215;-83
2022/05/09 02:06:37;;;;;;;19.77;15.15;;;10.20;99.90;;;;;;4957963;28;20177;-84
2022/05/09 02:09:03;;;;;;;19.05;14.20;;;10.20;99.90;;;;;;4962743;28;20184;-83
2022/05/09 02:11:29;;;;;;;20.10;14.52;;;10.20;99.90;;;;;;4970813;28;20200;-83
2022/05/09 02:13:55;;;;;;;20.43;14.17;;;10.30;99.90;;;;;;4956072;28;20910;-84
2022/05/09 02:16:20;;;;;;;20.90;14.80;;;10.30;99.90;;;;;;4953592;28;20731;-84
2022/05/09 02:18:46;;;;;;;19.00;14.43;;;10.30;99.90;;;;;;4948269;28;20216;-84
2022/05/09 02:21:12;;;;;;;18.23;13.83;;;10.30;99.90;;;;;;4956217;28;20656;-84
2022/05/09 02:23:38;;;;;;;20.73;14.40;;;;;;;;;;4956909;28;20720;-84
2022/05/09 02:26:03;;;;;;;18.43;12.77;;;10.30;99.90;;;;;;4955193;28;20578;-84
2022/05/09 02:28:29;;;;;;;18.20;13.50;;;10.30;99.90;;;;;;4957839;28;20449;-83
2022/05/09 02:30:55;;;;;;;19.07;12.50;;;;;;;;;;4952094;28;20191;-84
2022/05/09 02:33:20;;;;;;;17.10;13.90;;;10.20;99.90;;;;;;4946937;28;20180;-83
2022/05/09 02:35:47;;;;;;;19.73;13.50;;;10.30;99.90;;;;;;4953462;28;20578;-83
2022/05/09 02:38:13;;;;;;;20.15;13.93;;;10.30;99.90;;;;;;4960549;28;20207;-83
2022/05/09 02:40:40;;;;;;;17.70;12.80;;;10.20;99.90;;;;;;4958811;28;20190;-83
2022/05/09 02:43:06;;;;;;;20.67;13.95;;;10.20;99.90;;;;;;4952163;28;20213;-83
2022/05/09 02:45:32;;;;;;;18.35;13.70;;;10.20;99.90;;;;;;4950652;28;20208;-82
2022/05/09 02:47:58;;;;;;;17.23;13.10;;;10.10;99.90;;;;;;4954791;28;20188;-82
2022/05/09 02:50:24;;;;;;;20.17;14.60;;;10.00;99.90;;;;;;4950929;28;20271;-82
2022/05/09 02:52:51;;;;;;;21.60;15.02;;;10.00;99.90;;;;;;4959087;28;20239;-81
2022/05/09 02:55:18;;;;;;;17.67;13.80;;;10.00;99.90;;;;;;4961944;28;20296;-83
2022/05/09 02:57:44;;;;;;;22.20;14.48;;;10.00;99.90;;;;;;4958679;28;20247;-81
2022/05/09 03:00:18;;;;;;;31.48;15.43;;;9.90;99.90;;;;;;4956639;28;20231;-81
2022/05/09 03:04:38;;;;;;;21.13;14.35;;;9.90;99.90;;;;;;4953256;28;20200;-81
2022/05/09 03:05:31;;;;;;;19.17;14.38;;;9.90;99.90;;;;;;4946921;28;21240;-82
2022/05/09 03:07:56;;;;;;;25.95;16.05;;;9.90;99.90;;;;;;4956118;28;20185;-82
2022/05/09 03:10:23;;;;;;;23.83;15.87;;;9.90;99.90;;;;;;4959414;28;20184;-81
2022/05/09 03:12:49;;;;;;;26.00;17.13;;;9.80;99.90;;;;;;4956282;28;20264;-81
2022/05/09 03:15:16;;;;;;;20.35;13.20;;;9.90;99.90;;;;;;4956072;28;20946;-81
2022/05/09 03:17:41;;;;;;;24.52;16.50;;;10.00;99.90;;;;;;4957480;28;20181;-81
2022/05/09 03:20:07;;;;;;;28.37;16.27;;;9.90;99.90;;;;;;4953499;28;20240;-82
2022/05/09 03:22:33;;;;;;;21.15;14.48;;;9.90;99.90;;;;;;4952266;28;20718;-82
2022/05/09 03:24:59;;;;;;;19.27;15.00;;;9.80;99.90;;;;;;4957829;28;20205;-81
2022/05/09 03:27:24;;;;;;;27.63;17.53;;;9.80;99.90;;;;;;4958722;28;20207;-82
2022/05/09 03:29:50;;;;;;;25.70;16.40;;;9.70;99.90;;;;;;4956217;28;20177;-82
2022/05/09 03:32:15;;;;;;;26.50;17.40;;;9.70;99.90;;;;;;4960929;28;20168;-81
2022/05/09 03:34:41;;;;;;;21.63;16.53;;;9.70;99.90;;;;;;4951032;28;20704;-82
2022/05/09 03:37:06;;;;;;;29.93;18.90;;;9.70;99.90;;;;;;4955020;28;20189;-84
2022/05/09 03:39:32;;;;;;;32.10;18.97;;;9.70;99.90;;;;;;4966825;28;20182;-82
2022/05/09 03:41:58;;;;;;;25.80;17.73;;;9.70;99.90;;;;;;4958496;28;20219;-81
2022/05/09 03:44:23;;;;;;;24.50;17.10;;;9.70;99.90;;;;;;4955756;28;20212;-81
2022/05/09 03:46:49;;;;;;;24.80;16.73;;;9.70;99.90;;;;;;4958851;28;20199;-82
2022/05/09 03:49:14;;;;;;;23.67;16.40;;;9.60;99.90;;;;;;4949080;28;20191;-81
2022/05/09 03:51:40;;;;;;;24.50;17.27;;;9.60;99.90;;;;;;4949107;28;20185;-81
2022/05/09 03:54:05;;;;;;;24.07;16.77;;;9.60;99.90;;;;;;4954022;28;20614;-81
2022/05/09 03:56:31;;;;;;;31.80;17.70;;;9.60;99.90;;;;;;4951642;28;20184;-83
2022/05/09 03:58:56;;;;;;;23.03;16.80;;;9.70;99.90;;;;;;4952190;28;20593;-82
2022/05/09 04:01:22;;;;;;;26.07;18.00;;;;;;;;;;4959848;28;20180;-82
2022/05/09 04:03:48;;;;;;;24.30;17.47;;;;;;;;;;4952345;28;20223;-82
2022/05/09 04:06:14;;;;;;;25.52;18.65;;;9.70;99.90;;;;;;4956973;28;20505;-83
2022/05/09 04:08:39;;;;;;;25.30;19.10;;;9.80;99.90;;;;;;4957292;28;20184;-82
2022/05/09 04:11:05;;;;;;;32.30;19.50;;;9.80;99.90;;;;;;4962913;28;20204;-86
2022/05/09 04:13:30;;;;;;;28.00;19.73;;;9.90;99.90;;;;;;4965611;28;20548;-87
2022/05/09 04:18:43;;;;;;;23.55;18.65;;;10.30;99.90;;;;;;4964280;28;20256;-92
2022/05/09 04:21:11;;;;;;;24.42;17.58;;;10.40;99.90;;;;;;4975507;28;23032;-87
2022/05/09 04:23:38;;;;;;;26.40;17.92;;;;;;;;;;4960030;28;20216;-88
2022/05/09 04:26:05;;;;;;;27.30;20.17;;;;;;;;;;4961189;28;20619;-87
2022/05/09 04:28:31;;;;;;;31.60;22.90;;;;;;;;;;4966475;28;20189;-86
2022/05/09 04:30:58;;;;;;;25.45;19.55;;;;;;;;;;4962321;28;20164;-85
2022/05/09 04:33:23;;;;;;;21.52;16.27;;;;;;;;;;4958269;28;20188;-86
2022/05/09 04:35:49;;;;;;;21.23;15.13;;;;;;;;;;4958912;28;20209;-85
2022/05/09 04:38:21;;;;;;;17.40;13.23;;;15.10;99.90;;;;;;4953615;28;20434;-85
2022/05/09 04:40:51;;;;;;;19.30;13.33;;;;;;;;;;4950122;28;20536;-85
2022/05/09 04:43:17;;;;;;;14.93;12.10;;;;;;;;;;4952377;28;20498;-85
2022/05/09 04:45:43;;;;;;;16.87;12.03;;;;;;;;;;4951508;28;20456;-85
2022/05/09 04:48:09;;;;;;;18.80;10.53;;;19.00;99.90;;;;;;4972479;23;20496;-85
2022/05/09 04:50:35;;;;;;;13.73;10.20;;;;;;;;;;4955302;28;20442;-84
2022/05/09 04:53:00;;;;;;;12.83;11.47;;;20.60;99.90;;;;;;4966414;28;20184;-82
2022/05/09 04:55:27;;;;;;;14.67;11.00;;;;;;;;;;4956838;28;20455;-80
2022/05/09 04:57:53;;;;;;;11.50;10.07;;;21.80;99.90;;;;;;4964381;28;20478;-85
2022/05/09 05:00:22;;;;;;;12.87;10.20;;;23.00;99.90;;;;;;4955071;28;20474;-83
2022/05/09 05:02:48;;;;;;;10.40;9.30;;;;;;;;;;4953697;28;20220;-83
2022/05/09 05:05:14;;;;;;;11.43;10.23;;;;;;;;;;4956346;28;21026;-81
2022/05/09 05:07:40;;;;;;;13.43;9.60;;;;;;;;;;4952639;28;21154;-81
2022/05/09 05:10:06;;;;;;;12.43;9.73;;;26.10;99.90;;;;;;4960986;28;20432;-82
2022/05/09 05:12:32;;;;;;;12.23;11.03;;;;;;;;;;4967712;28;20436;-81
2022/05/09 05:15:00;;;;;;;10.23;9.10;;;;;;;;;;4960120;28;20831;-84
2022/05/09 05:17:26;;;;;;;10.40;8.87;;;;;;;;;;4954492;28;20613;-82
2022/05/09 05:19:52;;;;;;;15.47;8.47;;;;;;;;;;4954750;28;20532;-83
2022/05/09 05:22:18;;;;;;;11.40;8.80;;;;;;;;;;4954874;28;20439;-83
2022/05/09 05:24:44;;;;;;;13.10;9.07;;;30.70;78.70;;;;;;4956065;28;20465;-85
2022/05/09 05:27:12;;;;;;;12.77;10.03;;;29.80;79.20;;;;;;4955295;28;20830;-84
2022/05/09 05:29:38;;;;;;;10.30;9.23;;;;;;;;;;4956279;28;20984;-83
2022/05/09 05:32:15;;;;;;;9.63;8.73;;;29.90;78.30;;;;;;4953797;28;20438;-83
2022/05/09 05:34:41;;;;;;;11.10;9.53;;;;;;;;;;4957975;28;21138;-81
2022/05/09 05:37:07;;;;;;;10.77;9.77;;;;;;;;;;4955998;28;20589;-82
2022/05/09 05:39:36;;;;;;;9.57;8.60;;;;;;;;;;4965717;28;20443;-85
2022/05/09 05:42:03;;;;;;;10.60;9.40;;;31.20;67.70;;;;;;4960534;28;20510;-85
2022/05/09 05:44:29;;;;;;;12.23;9.30;;;;;;;;;;4957517;28;20882;-83
2022/05/09 05:46:55;;;;;;;12.50;9.43;;;;;;;;;;4958783;28;20485;-83
2022/05/09 05:49:21;;;;;;;11.23;10.03;;;;;;;;;;4955460;28;20493;-84
2022/05/09 05:51:47;;;;;;;11.37;10.17;;;;;;;;;;4957169;28;20638;-84
2022/05/09 05:54:13;;;;;;;10.37;9.37;;;;;;;;;;4954342;28;20524;-82
2022/05/09 05:56:39;;;;;;;11.33;10.20;;;;;;;;;;4956426;28;20525;-84
2022/05/09 05:59:05;;;;;;;11.80;10.60;;;;;;;;;;4965271;28;20826;-83
2022/05/09 06:01:33;;;;;;;13.63;10.30;;;;;;;;;;4960291;28;20477;-84
2022/05/09 06:04:00;;;;;;;14.07;12.83;;;;;;;;;;4958112;28;20466;-85
2022/05/09 06:06:26;;;;;;;12.83;10.93;;;;;;;;;;4958701;28;20434;-83
2022/05/09 06:08:52;;;;;;;12.40;11.33;;;;;;;;;;4960306;28;20467;-82
2022/05/09 06:11:18;;;;;;;11.77;10.67;;;;;;;;;;4966862;28;20428;-80
2022/05/09 06:13:44;;;;;;;11.77;10.83;;;;;;;;;;4962125;28;20801;-85
2022/05/09 06:16:10;;;;;;;12.90;11.70;;;;;;;;;;4968522;28;20453;-85
2022/05/09 06:18:36;;;;;;;13.03;11.80;;;;;;;;;;4963590;28;20455;-84
2022/05/09 06:21:03;;;;;;;15.30;12.73;;;;;;;;;;4969105;28;20508;-85
2022/05/09 06:23:29;;;;;;;14.10;13.00;;;;;;;;;;4972326;28;20567;-83
2022/05/09 06:25:56;;;;;;;15.30;13.97;;;;;;;;;;4963457;28;21174;-83
2022/05/09 06:28:23;;;;;;;13.93;12.53;;;;;;;;;;4966875;28;20465;-84
2022/05/09 06:30:50;;;;;;;15.13;13.83;;;;;;;;;;4963693;28;20464;-84
2022/05/09 06:33:23;;;;;;;13.17;12.20;;;35.70;50.80;;;;;;4966838;28;20463;-83
2022/05/09 06:35:51;;;;;;;17.27;15.63;;;36.10;48.30;;;;;;4963762;28;20447;-83
2022/05/09 06:38:18;;;;;;;16.10;14.67;;;36.00;75.60;;;;;;4963830;28;20506;-85
2022/05/09 06:40:44;;;;;;;15.50;14.40;;;;;;;;;;4968615;28;20442;-84
2022/05/09 06:43:10;;;;;;;17.93;16.50;;;;;;;;;;4965572;28;21065;-84
2022/05/09 06:45:36;;;;;;;18.43;16.93;;;;;;;;;;4963350;28;20443;-82
2022/05/09 06:48:02;;;;;;;17.57;16.17;;;;;;;;;;4961578;28;20487;-86
2022/05/09 06:50:30;;;;;;;17.60;16.17;;;37.90;46.30;;;;;;4962402;28;20442;-85
2022/05/09 06:52:57;;;;;;;20.20;18.37;;;;;;;;;;4961442;28;20525;-87
2022/05/09 06:55:23;;;;;;;20.27;18.63;;;;;;;;;;4964326;28;20523;-85
2022/05/09 06:57:49;;;;;;;18.80;17.50;;;;;;;;;;4964787;28;21204;-85
2022/05/09 07:00:18;;;;;;;23.03;21.43;;;36.70;44.00;;;;;;4963241;28;20467;-85
2022/05/09 07:02:45;;;;;;;21.40;20.10;;;;;;;;;;4963129;28;20458;-83
2022/05/09 07:05:13;;;;;;;22.57;20.83;;;36.20;46.20;;;;;;4959729;28;20440;-84
2022/05/09 07:07:40;;;;;;;21.47;19.73;;;;;;;;;;4962974;28;20461;-85
2022/05/09 07:10:06;;;;;;;21.37;19.97;;;;;;;;;;4963078;28;20513;-83
2022/05/09 07:12:32;;;;;;;21.80;20.40;;;;;;;;;;4965347;28;20476;-85
2022/05/09 07:14:58;;;;;;;21.73;20.13;;;;;;;;;;4965531;28;20958;-85
2022/05/09 07:17:24;;;;;;;25.93;23.90;;;;;;;;;;4965950;28;20456;-82
2022/05/09 07:19:50;;;;;;;25.63;23.87;;;;;;;;;;4965174;28;20511;-83
2022/05/09 07:22:17;;;;;;;24.30;22.77;;;36.90;42.50;;;;;;4965656;28;20238;-85
2022/05/09 07:24:44;;;;;;;24.60;22.73;;;;;;;;;;4963543;28;20292;-85
2022/05/09 07:27:10;;;;;;;23.43;22.03;;;;;;;;;;4960854;28;20512;-85
2022/05/09 07:29:36;;;;;;;24.23;22.37;;;;;;;;;;4963165;28;20465;-84
2022/05/09 07:32:02;;;;;;;23.40;21.80;;;;;;;;;;4964730;28;20429;-85
2022/05/09 07:34:28;;;;;;;22.30;20.50;;;;;;;;;;4965010;28;20437;-86
2022/05/09 07:36:54;;;;;;;21.40;19.90;;;;;;;;;;4964286;28;20902;-84
2022/05/09 07:39:20;;;;;;;21.50;19.87;;;;;;;;;;4971593;28;20796;-83
2022/05/09 07:41:46;;;;;;;22.23;20.43;;;;;;;;;;4967566;28;20442;-84
2022/05/09 07:44:12;;;;;;;21.20;19.00;;;;;;;;;;4963777;28;20471;-84
2022/05/09 07:46:38;;;;;;;20.20;18.70;;;;;;;;;;4961206;28;20469;-81
2022/05/09 07:49:04;;;;;;;20.10;18.20;;;;;;;;;;4960009;28;20802;-82
2022/05/09 07:51:30;;;;;;;21.47;19.87;;;;;;;;;;4959972;28;20443;-83
2022/05/09 07:53:56;;;;;;;17.70;16.50;;;;;;;;;;4960403;28;20446;-84
2022/05/09 07:56:22;;;;;;;16.83;15.63;;;;;;;;;;4961683;28;20575;-84
2022/05/09 07:58:47;;;;;;;20.43;19.00;;;;;;;;;;4963304;28;20550;-85
2022/05/09 08:01:13;;;;;;;22.80;20.83;;;;;;;;;;4961812;28;20434;-84
2022/05/09 08:03:39;;;;;;;22.73;20.87;;;;;;;;;;4966219;28;20943;-83
2022/05/09 08:06:06;;;;;;;23.10;21.10;;;33.90;47.70;;;;;;4964728;28;20908;-86
2022/05/09 08:08:36;;;;;;;22.17;20.47;;;35.30;48.20;;;;;;4960891;28;20465;-82
2022/05/09 08:11:02;;;;;;;19.03;17.63;;;36.90;75.50;;;;;;4959612;28;20445;-85
2022/05/09 08:13:33;;;;;;;18.43;17.27;;;37.50;44.20;;;;;;4970637;28;20476;-84
2022/05/09 08:15:59;;;;;;;19.43;18.03;;;;;;;;;;4967789;28;20516;-84
2022/05/09 08:18:26;;;;;;;20.10;18.60;;;;;;;;;;4964335;28;20462;-86
2022/05/09 08:20:53;;;;;;;24.67;20.20;;;;;;;;;;4965021;28;20440;-84
2022/05/09 08:23:19;;;;;;;19.80;18.40;;;;;;;;;;4964169;28;20983;-85
2022/05/09 08:25:48;;;;;;;24.43;22.70;;;34.80;46.10;;;;;;4961872;28;20444;-84
2022/05/09 08:28:15;;;;;;;22.93;20.80;;;34.70;47.80;;;;;;4964870;28;20454;-82
2022/05/09 08:30:42;;;;;;;22.50;20.40;;;34.10;46.10;;;;;;4964042;28;21015;-83
2022/05/09 08:33:15;;;;;;;21.73;20.37;;;33.60;46.80;;;;;;4971860;28;20454;-84
2022/05/09 08:35:43;;;;;;;22.00;20.50;;;34.40;46.90;;;;;;4979906;28;20460;-84
2022/05/09 08:38:09;;;;;;;24.00;22.20;;;;;;;;;;4963026;28;20458;-84
2022/05/09 08:41:07;;;;;;;22.40;20.77;;;34.20;46.40;;;;;;4964973;28;20809;-81
2022/05/09 08:43:37;;;;;;;21.90;20.40;;;34.80;56.30;;;;;;4963317;28;20476;-84
2022/05/09 08:46:39;;;;;;;19.80;18.40;;;34.40;45.70;;;;;;4962266;28;20440;-81
2022/05/09 08:49:22;;;;;;;18.00;15.80;;;35.30;46.60;;;;;;4966250;28;20467;-84
2022/05/09 08:52:01;;;;;;;19.37;17.90;;;35.00;44.60;;;;;;4963743;28;21410;-84
2022/05/09 08:54:27;;;;;;;18.97;17.53;;;;;;;;;;4970141;28;20485;-81
2022/05/09 08:57:01;;;;;;;19.67;18.17;;;34.50;44.90;;;;;;4963326;28;20438;-85
2022/05/09 08:59:33;;;;;;;22.07;20.63;;;34.00;46.80;;;;;;4961289;28;21972;-86
2022/05/09 09:02:09;;;;;;;19.50;18.17;;;34.50;48.00;;;;;;4964876;28;20805;-85
2022/05/09 09:04:36;;;;;;;17.70;16.30;;;34.70;47.30;;;;;;4962068;28;20871;-85
2022/05/09 09:07:29;;;;;;;19.37;17.77;;;33.70;45.50;;;;;;4961608;28;20478;-85
2022/05/09 09:10:23;;;;;;;20.30;18.83;;;33.60;46.20;;;;;;4962501;28;20431;-82
2022/05/09 09:13:00;;;;;;;19.07;17.37;;;34.20;47.70;;;;;;4965654;28;20448;-83
2022/05/09 09:16:03;;;;;;;17.73;16.10;;;35.30;46.40;;;;;;4970623;28;20454;-83
2022/05/09 09:18:42;;;;;;;18.67;17.07;;;36.20;48.90;;;;;;4964189;28;20460;-83
2022/05/09 09:21:15;;;;;;;18.47;16.87;;;35.70;44.70;;;;;;4962584;28;20439;-86
2022/05/09 09:24:05;;;;;;;19.20;16.90;;;35.40;50.50;;;;;;4962526;28;20976;-84
2022/05/09 09:26:41;;;;;;;18.40;16.90;;;34.10;69.80;;;;;;4959300;28;20977;-86
2022/05/09 09:29:14;;;;;;;18.90;17.47;;;34.60;46.60;;;;;;4961871;28;21014;-82
2022/05/09 09:31:47;;;;;;;17.67;16.27;;;33.60;47.60;;;;;;4954926;28;20840;-82
2022/05/09 09:34:29;;;;;;;18.57;17.17;;;33.40;47.60;;;;;;4954088;28;20447;-84
2022/05/09 09:37:19;;;;;;;19.67;18.10;;;33.40;47.80;;;;;;4956822;28;20444;-85
2022/05/09 09:39:45;;;;;;;19.00;17.60;;;;;;;;;;4956852;28;20428;-84
2022/05/09 09:42:12;;;;;;;20.27;18.60;;;;;;;;;;4958507;28;20532;-84
2022/05/09 09:44:43;;;;;;;17.77;16.57;;;31.50;49.50;;;;;;4965313;28;20588;-83
2022/05/09 09:47:20;;;;;;;20.00;18.07;;;30.60;50.90;;;;;;4958559;28;20775;-81
2022/05/09 09:49:48;;;;;;;18.40;16.90;;;30.70;53.40;;;;;;4959924;28;20431;-82
2022/05/09 09:52:20;;;;;;;18.50;17.17;;;31.00;51.90;;;;;;4956647;28;20437;-83
2022/05/09 09:55:05;;;;;;;17.80;16.33;;;31.60;53.20;;;;;;4957917;28;20950;-80
2022/05/09 09:57:35;;;;;;;19.47;17.13;;;31.70;51.10;;;;;;4953569;28;20472;-83
2022/05/09 10:00:21;;;;;;;16.00;14.90;;;32.00;52.60;;;;;;4958740;28;20444;-82
2022/05/09 10:02:49;;;;;;;18.57;16.93;;;32.60;50.00;;;;;;4954991;28;20490;-84
2022/05/09 10:05:18;;;;;;;17.40;16.10;;;32.30;49.40;;;;;;4960378;28;20528;-82
2022/05/09 10:07:44;;;;;;;21.30;19.00;;;32.00;50.00;;;;;;4962063;28;20483;-83
2022/05/09 10:10:19;;;;;;;17.90;16.50;;;28.60;52.00;;;;;;4956677;28;20443;-81
2022/05/09 10:12:48;;;;;;;16.37;14.73;;;29.40;56.80;;;;;;4959128;28;20967;-85
2022/05/09 10:15:20;;;;;;;15.87;14.50;;;30.10;54.70;;;;;;4965462;28;20465;-82
2022/05/09 10:17:46;;;;;;;17.23;14.53;;;;;;;;;;4956228;28;20455;-81
2022/05/09 10:20:34;;;;;;;17.50;14.73;;;30.60;53.30;;;;;;4958321;28;20489;-82
2022/05/09 10:26:02;;;;;;;15.93;13.37;;;28.60;57.70;;;;;;4958151;28;20548;-82
2022/05/09 10:28:31;;;;;;;14.93;13.43;;;27.40;71.80;;;;;;4957618;28;20535;-85
2022/05/09 10:31:07;;;;;;;16.17;12.90;;;27.30;60.40;;;;;;4961980;28;20433;-82
2022/05/09 10:33:49;;;;;;;12.03;10.83;;;26.20;64.00;;;;;;4963101;28;20442;-82
2022/05/09 10:36:21;;;;;;;14.30;11.10;;;25.10;68.30;;;;;;4959429;28;20434;-82
2022/05/09 10:38:56;;;;;;;12.50;10.77;;;25.30;70.40;;;;;;4956277;28;20542;-84
2022/05/09 10:41:48;;;;;;;17.90;12.27;;;25.50;68.90;;;;;;4960208;28;20459;-85
2022/05/09 10:44:39;;;;;;;13.13;11.50;;;25.50;68.50;;;;;;4959171;28;20469;-84
2022/05/09 10:47:05;;;;;;;13.97;11.10;;;;;;;;;;4966007;28;20443;-84
2022/05/09 10:49:43;;;;;;;14.20;11.23;;;25.60;70.00;;;;;;4971786;23;20507;-83
2022/05/09 10:52:13;;;;;;;13.47;11.03;;;25.50;70.80;;;;;;4949963;28;20495;-83
2022/05/09 10:54:49;;;;;;;12.70;10.17;;;25.60;75.10;;;;;;4944763;28;20486;-83
2022/05/09 10:57:41;;;;;;;18.10;11.10;;;25.60;73.00;;;;;;4951406;28;20465;-83
2022/05/09 11:00:21;;;;;;;13.47;9.77;;;25.30;80.90;;;;;;4950826;28;21020;-83
2022/05/09 11:03:23;;;;;;;13.30;11.17;;;25.10;86.30;;;;;;4953765;28;20436;-83
2022/05/09 11:06:10;;;;;;;16.13;9.93;;;25.60;77.60;;;;;;4956284;28;20458;-82
2022/05/09 11:08:57;;;;;;;11.37;10.23;;;25.60;76.90;;;;;;4957874;28;20486;-82
2022/05/09 11:11:41;;;;;;;15.77;9.37;;;25.90;78.20;;;;;;4945639;28;20439;-84
2022/05/09 11:14:07;;;;;;;28.63;10.53;;;;;;;;;;4952419;28;20444;-85
2022/05/09 11:16:48;;;;;;;14.13;9.53;;;24.60;76.90;;;;;;4949461;28;21003;-84
2022/05/09 11:19:21;;;;;;;11.30;10.30;;;24.70;77.80;;;;;;4943175;28;20613;-83
2022/05/09 11:21:54;;;;;;;10.13;8.97;;;25.20;92.10;;;;;;4955951;28;20432;-85
2022/05/09 11:24:45;;;;;;;11.67;10.47;;;25.00;78.50;;;;;;4953452;28;20466;-83
2022/05/09 11:27:55;;;;;;;15.70;10.00;;;24.70;92.80;;;;;;4953668;28;20452;-85
2022/05/09 11:30:46;;;;;;;14.47;9.77;;;25.50;84.60;;;;;;4916075;28;20462;-84
2022/05/09 11:33:34;;;;;;;12.43;9.00;;;25.90;81.60;;;;;;4944958;28;20448;-84
2022/05/09 11:36:28;;;;;;;13.67;9.17;;;26.20;76.60;;;;;;4951119;28;20445;-83
2022/05/09 11:39:00;;;;;;;12.00;9.20;;;25.70;75.70;;;;;;4952679;28;20467;-83
2022/05/09 11:41:40;;;;;;;11.23;9.27;;;25.90;75.60;;;;;;4954852;28;20515;-85
2022/05/09 11:44:13;;;;;;;9.63;7.87;;;26.30;81.40;;;;;;4952875;28;20600;-83
2022/05/09 11:46:45;;;;;;;8.90;8.10;;;26.30;77.50;;;;;;4938791;28;20457;-85
2022/05/09 11:49:22;;;;;;;10.10;9.10;;;26.70;72.10;;;;;;4953351;28;20584;-84
2022/05/09 11:52:02;;;;;;;11.80;8.80;;;27.20;73.70;;;;;;4944891;28;20443;-86
2022/05/09 11:54:41;;;;;;;10.73;7.83;;;27.30;72.30;;;;;;4955428;28;21074;-83
2022/05/09 11:57:32;;;;;;;12.60;8.07;;;26.80;71.90;;;;;;4955810;28;20836;-83
2022/05/09 12:00:00;;;;;;;8.97;8.10;;;27.00;67.80;;;;;;4953982;28;22072;-84
2022/05/09 12:02:53;;;;;;;11.03;8.40;;;26.50;78.20;;;;;;4939605;28;20924;-84
2022/05/09 12:05:25;;;;;;;9.83;7.80;;;26.70;68.60;;;;;;4948151;28;21029;-83
2022/05/09 12:08:13;;;;;;;10.70;7.83;;;27.10;68.10;;;;;;4952824;28;20447;-85
2022/05/09 12:10:42;;;;;;;8.33;7.50;;;27.00;68.90;;;;;;4953590;28;20549;-84
2022/05/09 12:13:35;;;;;;;9.40;8.13;;;27.20;68.70;;;;;;4956204;28;20427;-84
2022/05/09 12:16:01;;;;;;;8.17;7.47;;;;;;;;;;4940978;28;20456;-82
2022/05/09 12:18:31;;;;;;;9.00;7.40;;;26.50;64.30;;;;;;4934385;28;20461;-82
2022/05/09 12:21:03;;;;;;;9.20;7.37;;;25.20;61.80;;;;;;4942692;28;20515;-83
2022/05/09 12:23:50;;;;;;;10.70;6.80;;;26.40;68.50;;;;;;4960341;28;20866;-83
2022/05/09 12:26:31;;;;;;;11.60;7.30;;;26.90;70.50;;;;;;4956115;28;20441;-84
2022/05/09 12:29:12;;;;;;;7.83;7.07;;;27.00;66.40;;;;;;4940907;28;20820;-85
2022/05/09 12:31:46;;;;;;;7.10;6.40;;;27.10;65.10;;;;;;4948220;28;20573;-84
2022/05/09 12:34:14;;;;;;;8.73;7.83;;;26.70;62.70;;;;;;4957403;28;20999;-83
2022/05/09 12:36:40;;;;;;;9.80;7.83;;;;;;;;;;4957238;28;20451;-84
2022/05/09 12:39:18;;;;;;;9.53;6.90;;;25.30;81.80;;;;;;4958408;28;20461;-84
2022/05/09 12:41:48;;;;;;;8.70;7.50;;;25.30;64.10;;;;;;4959235;28;22328;-85
2022/05/09 12:44:19;;;;;;;8.67;7.43;;;25.10;62.00;;;;;;4940178;28;21007;-84
2022/05/09 12:46:53;;;;;;;7.37;6.67;;;25.20;63.60;;;;;;4959079;28;20443;-83
2022/05/09 12:49:24;;;;;;;8.80;6.77;;;25.40;64.30;;;;;;4955315;28;20971;-83
2022/05/09 12:51:53;;;;;;;9.37;7.00;;;25.70;63.00;;;;;;4946597;28;20432;-82
2022/05/09 12:54:22;;;;;;;11.07;6.53;;;26.20;65.40;;;;;;4949380;28;20546;-85
2022/05/09 12:56:52;;;;;;;7.17;6.47;;;26.60;61.20;;;;;;4954100;28;20975;-86
2022/05/09 12:59:18;;;;;;;10.90;7.00;;;26.50;60.30;;;;;;4957352;28;20519;-84
2022/05/09 13:01:52;;;;;;;7.17;6.47;;;26.80;59.00;;;;;;4957358;28;20541;-84
2022/05/09 13:04:26;;;;;;;7.50;6.80;;;26.90;58.90;;;;;;4959277;28;20807;-83
2022/05/09 13:06:59;;;;;;;8.03;7.07;;;26.80;59.10;;;;;;4941171;28;20909;-83
2022/05/09 13:09:29;;;;;;;7.47;6.77;;;26.50;59.60;;;;;;4956358;28;21057;-83
2022/05/09 13:12:13;;;;;;;8.27;6.80;;;26.20;58.10;;;;;;4960764;28;20445;-82
2022/05/09 13:14:44;;;;;;;21.80;6.40;;;26.30;62.20;;;;;;4956855;28;20434;-83
2022/05/09 13:17:21;;;;;;;9.33;7.07;;;26.40;59.30;;;;;;4945288;28;20446;-83
2022/05/09 13:19:49;;;;;;;7.40;6.70;;;26.50;57.80;;;;;;4944983;28;21154;-85
2022/05/09 13:22:20;;;;;;;7.43;6.33;;;26.50;56.50;;;;;;4958200;28;20438;-83
2022/05/09 13:24:46;;;;;;;7.20;6.50;;;;;;;;;;4942011;28;20466;-81